KMKT/MKT METAR and TAF weather

Enter ICAO airport designator
Station Type Date Time Source
KMKT METAR 2022/06/27 07:56 UTC NOAA

KMKT 270756Z AUTO 26004KT 10SM CLR 13/07 A3025 RMK AO2 SLP244 T01330072


Station Type Date Time Source
KMKT Decoded METAR 2022/06/27 07:56 UTC NOAA

Mankato, Mankato Regional Airport, MN, United States (KMKT) 44-13N 093-55W
Jun 27, 2022 - 03:56 AM EDT / 2022.06.27 0756 UTC
Wind: from the W (260 degrees) at 5 MPH (4 KT):0
Visibility: 10 mile(s):0
Sky conditions: clear
Temperature: 55.9 F (13.3 C)
Dew Point: 45.0 F (7.2 C)
Relative Humidity: 66%
Pressure (altimeter): 30.25 in. Hg (1024 hPa)
ob: KMKT 270756Z AUTO 26004KT 10SM CLR 13/07 A3025 RMK AO2 SLP244 T01330072
cycle: 8

Station Type Date Time Source
KMKT TAF 2022/06/27 06:54 UTC NOAA

TAF KMKT 270535Z 2706/2806 29005KT P6SM SKC
FM271700 28009KT P6SM FEW080
FM280200 20005KT P6SM SKC

Example: see airport list